createdAt,value
2023-09-06T00:01:42.766Z,17.45
2023-09-06T00:06:44.290Z,17.38
2023-09-06T00:11:45.849Z,17.43
2023-09-06T00:16:47.775Z,17.56
2023-09-06T00:21:49.361Z,17.41
2023-09-06T00:26:50.912Z,17.49
2023-09-06T00:31:52.435Z,17.35
2023-09-06T00:36:53.981Z,17.25
2023-09-06T00:41:55.445Z,17.30
2023-09-06T00:46:57.060Z,17.17
2023-09-06T00:51:58.617Z,17.07
2023-09-06T00:57:00.214Z,16.99
2023-09-06T01:02:01.796Z,16.98
2023-09-06T01:07:05.110Z,17.04
2023-09-06T01:12:06.939Z,17.12
2023-09-06T01:17:10.409Z,17.09
2023-09-06T01:22:23.391Z,17.09
2023-09-06T01:27:25.281Z,17.02
2023-09-06T01:32:26.790Z,17.06
2023-09-06T01:37:28.283Z,16.96
2023-09-06T01:42:29.718Z,16.83
2023-09-06T01:47:31.215Z,16.78
2023-09-06T01:52:32.753Z,16.66
2023-09-06T01:57:34.229Z,16.50
2023-09-06T02:02:35.830Z,16.32
2023-09-06T02:07:37.356Z,16.30
2023-09-06T02:12:39.327Z,16.29
2023-09-06T02:17:42.225Z,16.24
2023-09-06T02:22:45.404Z,15.99
2023-09-06T02:27:46.963Z,15.96
2023-09-06T02:32:52.073Z,15.83
2023-09-06T02:37:53.572Z,15.73
2023-09-06T02:42:55.031Z,15.67
2023-09-06T02:47:56.551Z,15.64
2023-09-06T02:52:58.034Z,15.61
2023-09-06T02:57:59.857Z,15.53
2023-09-06T03:03:01.503Z,15.43
2023-09-06T03:08:03.268Z,15.37
2023-09-06T03:13:06.046Z,15.36
2023-09-06T03:18:07.732Z,15.33
2023-09-06T03:23:11.359Z,15.37
2023-09-06T03:28:13.490Z,15.38
2023-09-06T03:33:15.755Z,15.39
2023-09-06T03:38:17.882Z,15.54
2023-09-06T03:43:19.514Z,15.58
2023-09-06T03:48:22.245Z,15.42
2023-09-06T03:53:24.675Z,15.30
2023-09-06T03:58:28.074Z,15.18
2023-09-06T04:03:31.309Z,15.10
2023-09-06T04:08:35.205Z,15.09
2023-09-06T04:13:37.692Z,15.03
2023-09-06T04:18:39.566Z,15.02
2023-09-06T04:23:41.178Z,15.05
2023-09-06T04:28:44.774Z,14.96
2023-09-06T04:33:49.819Z,14.93
2023-09-06T04:38:55.576Z,15.04
2023-09-06T04:43:57.904Z,15.01
2023-09-06T04:48:59.528Z,15.00
2023-09-06T04:54:01.323Z,14.87
2023-09-06T04:59:07.451Z,14.84
2023-09-06T05:04:09.385Z,14.86
2023-09-06T05:09:11.422Z,14.93
2023-09-06T05:14:13.014Z,14.98
2023-09-06T05:19:15.545Z,15.06
2023-09-06T05:24:17.432Z,15.09
2023-09-06T05:29:19.529Z,15.13
2023-09-06T05:34:21.282Z,15.18
2023-09-06T05:39:22.923Z,15.24
2023-09-06T05:44:24.502Z,15.28
2023-09-06T05:49:26.178Z,15.32
2023-09-06T05:54:27.750Z,15.44
2023-09-06T05:59:29.345Z,15.76
2023-09-06T06:04:31.037Z,20.44
2023-09-06T06:09:32.604Z,22.75
2023-09-06T06:14:34.083Z,23.94
2023-09-06T06:19:38.395Z,24.50
2023-09-06T06:24:43.117Z,24.75
2023-09-06T06:29:44.622Z,25.48
2023-09-06T06:34:46.100Z,26.23
2023-09-06T06:39:47.720Z,26.25
2023-09-06T06:44:49.174Z,27.03
2023-09-06T06:49:51.753Z,27.04
2023-09-06T06:54:53.237Z,27.83
2023-09-06T06:59:54.691Z,27.88
2023-09-06T07:04:58.022Z,28.48
2023-09-06T07:09:59.653Z,28.29
2023-09-06T07:15:01.119Z,28.90
2023-09-06T07:20:03.001Z,29.07
2023-09-06T07:25:06.416Z,29.21
2023-09-06T07:30:08.603Z,29.71
2023-09-06T07:35:10.250Z,29.15
2023-09-06T07:40:12.058Z,29.59
2023-09-06T07:45:13.534Z,29.63
2023-09-06T07:50:15.166Z,29.61
2023-09-06T07:55:16.780Z,29.80
2023-09-06T08:00:18.524Z,30.25
2023-09-06T08:05:20.043Z,30.51
2023-09-06T08:10:21.547Z,30.37
2023-09-06T08:15:23.329Z,30.23
2023-09-06T08:20:24.975Z,30.19
2023-09-06T08:25:26.782Z,30.42
2023-09-06T08:30:28.464Z,30.11
2023-09-06T08:35:30.088Z,30.70
2023-09-06T08:40:31.626Z,30.91
2023-09-06T08:45:34.567Z,30.71
2023-09-06T08:50:37.200Z,29.90
2023-09-06T08:55:38.798Z,28.27
2023-09-06T09:00:40.835Z,26.94
2023-09-06T09:05:42.463Z,26.88
2023-09-06T09:10:43.964Z,26.91
2023-09-06T09:15:46.372Z,27.08
2023-09-06T09:20:47.826Z,27.09
2023-09-06T09:25:50.555Z,26.73
2023-09-06T09:30:52.587Z,26.75
2023-09-06T09:35:54.177Z,26.97
2023-09-06T09:41:09.273Z,26.97
2023-09-06T09:46:11.072Z,27.13
2023-09-06T09:51:15.077Z,27.48
2023-09-06T09:56:16.741Z,27.88
2023-09-06T10:01:19.986Z,27.87
2023-09-06T10:06:22.371Z,27.74
2023-09-06T10:11:26.008Z,27.67
2023-09-06T10:16:27.668Z,27.59
2023-09-06T10:21:32.487Z,27.83
2023-09-06T10:26:35.715Z,27.80
2023-09-06T10:31:47.669Z,27.51
2023-09-06T10:36:56.820Z,28.17
2023-09-06T10:42:10.652Z,28.46
2023-09-06T10:47:29.138Z,28.77
2023-09-06T10:52:43.216Z,28.61
2023-09-06T10:58:00.104Z,28.46
2023-09-06T11:03:07.698Z,28.84
2023-09-06T11:08:10.842Z,28.95
2023-09-06T11:13:13.968Z,29.05
2023-09-06T11:18:15.527Z,29.01
2023-09-06T11:23:17.420Z,29.31
2023-09-06T11:28:20.210Z,28.98
2023-09-06T11:33:28.729Z,29.16
2023-09-06T11:38:33.392Z,29.14
2023-09-06T11:43:35.366Z,29.12
2023-09-06T11:48:37.062Z,29.22
2023-09-06T11:53:42.328Z,29.29
2023-09-06T11:58:44.711Z,29.22
2023-09-06T12:03:47.175Z,29.11
2023-09-06T12:08:48.854Z,29.12
2023-09-06T12:13:50.417Z,29.27
2023-09-06T12:18:52.419Z,29.44
2023-09-06T12:23:53.956Z,29.32
2023-09-06T12:28:55.437Z,29.36
2023-09-06T12:33:56.931Z,29.28
2023-09-06T12:38:58.568Z,29.10
2023-09-06T12:44:00.090Z,29.34
2023-09-06T12:49:01.649Z,29.30
2023-09-06T12:54:03.225Z,28.97
2023-09-06T12:59:04.804Z,29.19
2023-09-06T13:04:06.746Z,29.32
2023-09-06T13:09:08.301Z,29.13
2023-09-06T13:14:09.856Z,29.22
2023-09-06T13:19:13.415Z,29.21
2023-09-06T13:24:16.360Z,29.14
2023-09-06T13:29:17.843Z,29.33
2023-09-06T13:34:19.290Z,29.19
2023-09-06T13:39:20.768Z,29.17
2023-09-06T13:44:22.452Z,29.12
2023-09-06T13:49:23.900Z,29.02
2023-09-06T13:54:25.419Z,29.00
2023-09-06T13:59:26.968Z,28.96
2023-09-06T14:04:28.520Z,28.90
2023-09-06T14:09:30.070Z,28.92
2023-09-06T14:14:31.572Z,28.95
2023-09-06T14:19:33.059Z,28.96
2023-09-06T14:24:34.470Z,28.85
2023-09-06T14:29:35.943Z,28.82
2023-09-06T14:34:37.404Z,28.73
2023-09-06T14:39:38.920Z,28.78
2023-09-06T14:44:40.424Z,28.73
2023-09-06T14:49:41.979Z,28.73
2023-09-06T14:54:44.592Z,28.73
2023-09-06T14:59:46.099Z,28.68
2023-09-06T15:04:47.589Z,28.64
2023-09-06T15:09:49.152Z,28.65
2023-09-06T15:14:51.042Z,28.64
2023-09-06T15:19:52.525Z,28.60
2023-09-06T15:24:53.959Z,28.64
2023-09-06T15:29:55.452Z,28.57
2023-09-06T15:34:57.076Z,28.55
2023-09-06T15:39:58.595Z,28.47
2023-09-06T15:45:00.164Z,28.43
2023-09-06T15:50:01.665Z,28.39
2023-09-06T15:55:03.262Z,28.34
2023-09-06T16:00:16.107Z,28.31
2023-09-06T16:05:22.014Z,28.24
2023-09-06T16:10:27.018Z,28.23
2023-09-06T16:15:28.524Z,28.08
2023-09-06T16:20:29.952Z,27.99
2023-09-06T16:25:35.001Z,27.92
2023-09-06T16:30:39.981Z,27.88
2023-09-06T16:35:41.567Z,27.72
2023-09-06T16:40:43.044Z,27.53
2023-09-06T16:45:44.625Z,27.42
2023-09-06T16:50:46.157Z,27.29
2023-09-06T16:55:47.648Z,27.13
2023-09-06T17:00:49.176Z,26.93
2023-09-06T17:05:50.676Z,26.79
2023-09-06T17:10:52.224Z,26.59
2023-09-06T17:15:53.835Z,26.46
2023-09-06T17:20:55.468Z,26.37
2023-09-06T17:25:57.054Z,26.25
2023-09-06T17:30:58.560Z,26.10
2023-09-06T17:36:00.006Z,26.01
2023-09-06T17:41:01.548Z,25.88
2023-09-06T17:46:03.586Z,25.80
2023-09-06T17:51:05.161Z,25.70
2023-09-06T17:56:07.838Z,25.53
2023-09-06T18:01:10.973Z,25.42
2023-09-06T18:06:13.089Z,25.22
2023-09-06T18:11:14.665Z,25.08
2023-09-06T18:16:17.627Z,24.94
2023-09-06T18:21:19.151Z,24.83
2023-09-06T18:26:20.711Z,24.61
2023-09-06T18:31:22.441Z,24.49
2023-09-06T18:36:24.088Z,24.30
2023-09-06T18:41:25.547Z,24.17
2023-09-06T18:46:27.115Z,24.23
2023-09-06T18:51:28.632Z,24.19
2023-09-06T18:56:30.101Z,24.11
2023-09-06T19:01:31.589Z,23.85
2023-09-06T19:06:33.050Z,23.61
2023-09-06T19:11:35.598Z,23.40
2023-09-06T19:16:37.109Z,23.19
2023-09-06T19:21:38.608Z,23.10
2023-09-06T19:26:40.154Z,23.08
2023-09-06T19:31:41.661Z,22.81
2023-09-06T19:36:43.123Z,22.47
2023-09-06T19:41:44.595Z,22.52
2023-09-06T19:46:46.057Z,22.50
2023-09-06T19:51:47.541Z,22.42
2023-09-06T19:56:49.115Z,22.41
2023-09-06T20:01:50.620Z,22.40
2023-09-06T20:06:52.165Z,22.39
2023-09-06T20:11:53.669Z,22.35
2023-09-06T20:16:56.347Z,22.22
2023-09-06T20:21:57.894Z,22.09
2023-09-06T20:26:59.457Z,22.00
2023-09-06T20:32:01.174Z,21.98
2023-09-06T20:37:02.913Z,21.98
2023-09-06T20:42:04.821Z,21.89
2023-09-06T20:47:06.341Z,21.82
2023-09-06T20:52:07.901Z,21.84
2023-09-06T20:57:09.409Z,21.72
2023-09-06T21:02:10.916Z,21.64
2023-09-06T21:07:12.525Z,21.60
2023-09-06T21:12:14.059Z,21.46
2023-09-06T21:17:15.566Z,21.40
2023-09-06T21:22:17.042Z,21.20
2023-09-06T21:27:18.509Z,21.09
2023-09-06T21:32:19.982Z,20.92
2023-09-06T21:37:21.472Z,20.91
2023-09-06T21:42:23.025Z,20.79
2023-09-06T21:47:24.733Z,20.65
2023-09-06T21:52:26.304Z,20.46
2023-09-06T21:57:27.777Z,20.32
2023-09-06T22:02:29.405Z,20.23
2023-09-06T22:07:50.402Z,20.01
2023-09-06T22:13:10.301Z,19.85
2023-09-06T22:18:11.842Z,19.60
2023-09-06T22:23:13.581Z,19.47
2023-09-06T22:28:15.115Z,19.40
2023-09-06T22:33:16.686Z,19.33
2023-09-06T22:38:18.588Z,19.25
2023-09-06T22:43:20.151Z,19.16
2023-09-06T22:48:21.639Z,19.32
2023-09-06T22:53:23.173Z,19.38
2023-09-06T22:58:24.664Z,19.40
2023-09-06T23:03:26.244Z,19.19
2023-09-06T23:08:28.604Z,19.13
2023-09-06T23:13:30.342Z,19.04
2023-09-06T23:18:32.138Z,19.11
2023-09-06T23:23:34.049Z,19.01
2023-09-06T23:28:36.006Z,19.02
2023-09-06T23:33:38.126Z,18.89
2023-09-06T23:38:39.572Z,18.70
2023-09-06T23:43:41.068Z,18.64
2023-09-06T23:48:42.515Z,18.59
2023-09-06T23:53:43.994Z,18.48
2023-09-06T23:58:45.522Z,18.23
